[ SPECI EDKA 160702Z AUTO 20015KT //// ///////// 18/14 Q1012 ]
Windrichtung (graph.)
Inst: 196° 17.1 kt
2min: 193° 13.9 kt
10min: 202° 14.7 kt
Extrem: 185° – 221° 20 kt – 9.7 kt
Crosswind: 11.7 kt
Luftdruck (graph.)
QNH: 1012 hPa Temp: 18.4 °C
QNH: 29.88 inHg DewP: 13.7 °C
QFE: 989 hPa Hum: 74.0 %
QFE: 29.22 inHg